createdAt,value
2017-05-07T00:00:15.567Z,91.6
2017-05-07T00:00:55.993Z,92.07
2017-05-07T00:01:36.372Z,91.69
2017-05-07T00:02:16.835Z,91.6
2017-05-07T00:02:57.251Z,92.26
2017-05-07T00:03:37.696Z,92.46
2017-05-07T00:04:18.157Z,92.26
2017-05-07T00:04:58.573Z,92.07
2017-05-07T00:05:38.999Z,92.83
2017-05-07T00:06:19.724Z,92.55
2017-05-07T00:07:00.003Z,92.46
2017-05-07T00:07:40.324Z,92.46
2017-05-07T00:08:20.779Z,92.36
2017-05-07T00:09:01.162Z,92.74
2017-05-07T00:09:41.593Z,92.65
2017-05-07T00:10:22.028Z,92.46
2017-05-07T00:11:02.480Z,93.22
2017-05-07T00:11:42.874Z,92.83
2017-05-07T00:12:23.332Z,92.74
2017-05-07T00:13:03.721Z,92.46
2017-05-07T00:13:44.164Z,93.12
2017-05-07T00:14:24.583Z,92.83
2017-05-07T00:15:05.028Z,92.93
2017-05-07T00:15:45.467Z,92.93
2017-05-07T00:16:25.857Z,93.31
2017-05-07T00:17:06.296Z,93.51
2017-05-07T00:17:46.707Z,93.51
2017-05-07T00:18:27.123Z,93.22
2017-05-07T00:19:07.519Z,93.22
2017-05-07T00:19:47.969Z,93.41
2017-05-07T00:20:28.410Z,93.6
2017-05-07T00:21:08.815Z,93.51
2017-05-07T00:21:49.251Z,93.31
2017-05-07T00:22:29.672Z,93.31
2017-05-07T00:23:10.054Z,93.88
2017-05-07T00:23:50.498Z,93.6
2017-05-07T00:24:31.028Z,93.7
2017-05-07T00:25:11.371Z,93.7
2017-05-07T00:25:51.851Z,93.7
2017-05-07T00:26:32.247Z,93.98
2017-05-07T00:27:12.677Z,93.7
2017-05-07T00:27:53.086Z,94.46
2017-05-07T00:28:33.511Z,94.46
2017-05-07T00:29:13.985Z,94.36
2017-05-07T00:29:54.402Z,94.17
2017-05-07T00:30:34.856Z,94.07
2017-05-07T00:31:15.264Z,94.07
2017-05-07T00:31:55.690Z,94.07
2017-05-07T00:32:36.122Z,94.17
2017-05-07T00:33:16.542Z,94.36
2017-05-07T00:33:56.953Z,94.46
2017-05-07T00:34:37.355Z,94.36
2017-05-07T00:35:17.802Z,94.65
2017-05-07T00:35:58.242Z,94.84
2017-05-07T00:36:38.646Z,94.74
2017-05-07T00:37:19.054Z,94.84
2017-05-07T00:37:59.484Z,94.93
2017-05-07T00:38:39.941Z,94.65
2017-05-07T00:39:20.340Z,94.84
2017-05-07T00:40:00.772Z,94.36
2017-05-07T00:40:41.187Z,94.36
2017-05-07T00:41:21.635Z,95.22
2017-05-07T00:42:02.088Z,94.93
2017-05-07T00:42:42.499Z,94.84
2017-05-07T00:43:22.924Z,94.56
2017-05-07T00:44:03.352Z,94.84
2017-05-07T00:44:43.773Z,94.56
2017-05-07T00:45:24.219Z,94.93
2017-05-07T00:47:22.174Z,94.74
2017-05-07T00:48:02.576Z,94.84
2017-05-07T00:48:43.019Z,95.12
2017-05-07T00:49:23.433Z,95.41
2017-05-07T00:50:03.848Z,94.93
2017-05-07T00:50:44.285Z,95.7
2017-05-07T00:51:24.704Z,95.79
2017-05-07T00:52:05.111Z,95.51
2017-05-07T00:54:18.115Z,95.61
2017-05-07T00:54:58.559Z,95.03
2017-05-07T00:55:39.002Z,95.41
2017-05-07T00:56:19.484Z,95.61
2017-05-07T00:57:00.610Z,95.61
2017-05-07T00:57:41.053Z,95.51
2017-05-07T00:58:21.440Z,95.61
2017-05-07T00:59:01.870Z,95.79
2017-05-07T00:59:42.270Z,95.61
2017-05-07T01:00:22.684Z,95.89
2017-05-07T01:01:03.103Z,95.41
2017-05-07T01:01:43.542Z,96.27
2017-05-07T01:02:23.937Z,96.17
2017-05-07T01:03:04.377Z,95.98
2017-05-07T01:03:44.786Z,96.56
2017-05-07T01:04:25.226Z,96.37
2017-05-07T01:05:05.610Z,96.17
2017-05-07T01:05:46.030Z,96.27
2017-05-07T01:06:26.442Z,96.27
2017-05-07T01:07:06.849Z,96.27
2017-05-07T01:07:47.264Z,96.37
2017-05-07T01:08:27.672Z,95.89
2017-05-07T01:09:08.084Z,96.27
2017-05-07T01:09:48.478Z,96.27
2017-05-07T01:10:28.885Z,96.66
2017-05-07T01:11:09.267Z,96.37
2017-05-07T01:11:49.704Z,96.37
2017-05-07T01:12:30.129Z,96.46
2017-05-07T01:13:10.540Z,96.27
2017-05-07T01:13:50.962Z,96.27
2017-05-07T01:14:31.350Z,96.37
2017-05-07T01:15:11.785Z,96.27
2017-05-07T01:15:52.242Z,96.66
2017-05-07T01:16:32.637Z,97.22
2017-05-07T01:17:13.103Z,97.13
2017-05-07T01:17:53.466Z,96.84
2017-05-07T01:18:33.872Z,97.22
2017-05-07T01:19:14.282Z,96.94
2017-05-07T01:19:54.730Z,97.22
2017-05-07T01:20:35.083Z,97.03
2017-05-07T01:21:15.512Z,97.03
2017-05-07T01:21:55.941Z,97.42
2017-05-07T01:22:36.370Z,97.42
2017-05-07T01:23:16.783Z,97.42
2017-05-07T01:23:57.205Z,97.32
2017-05-07T01:24:37.631Z,97.13
2017-05-07T01:25:18.046Z,97.32
2017-05-07T01:25:58.482Z,97.32
2017-05-07T01:26:38.914Z,97.32
2017-05-07T01:27:19.342Z,97.42
2017-05-07T01:27:59.719Z,97.71
2017-05-07T01:30:17.734Z,98.18
2017-05-07T01:30:58.166Z,98.08
2017-05-07T01:31:38.547Z,97.8
2017-05-07T01:32:18.990Z,97.8
2017-05-07T01:32:59.391Z,97.99
2017-05-07T01:33:39.825Z,97.8
2017-05-07T01:34:20.254Z,97.89
2017-05-07T01:35:00.643Z,97.89
2017-05-07T01:35:41.070Z,97.89
2017-05-07T01:36:21.467Z,97.89
2017-05-07T01:37:01.886Z,97.89
2017-05-07T01:37:42.335Z,98.08
2017-05-07T01:38:22.737Z,98.18
2017-05-07T01:39:03.143Z,97.89
2017-05-07T01:39:43.546Z,97.8
2017-05-07T01:40:23.991Z,98.08
2017-05-07T01:41:04.399Z,98.08
2017-05-07T01:41:44.765Z,97.61
2017-05-07T01:42:25.202Z,98.08
2017-05-07T01:43:05.596Z,98.18
2017-05-07T01:43:46.048Z,97.89
2017-05-07T01:44:26.425Z,97.99
2017-05-07T01:45:06.875Z,98.66
2017-05-07T01:45:47.256Z,97.89
2017-05-07T01:46:27.687Z,98.47
2017-05-07T01:47:08.094Z,98.27
2017-05-07T01:47:48.531Z,98.75
2017-05-07T01:48:28.919Z,98.85
2017-05-07T01:49:09.336Z,98.37
2017-05-07T01:49:49.732Z,98.56
2017-05-07T01:50:30.158Z,98.75
2017-05-07T01:51:10.599Z,98.56
2017-05-07T01:51:51.926Z,98.47
2017-05-07T01:52:32.342Z,98.47
2017-05-07T01:53:12.775Z,98.56
2017-05-07T01:53:53.223Z,98.37
2017-05-07T01:54:33.623Z,99.13
2017-05-07T01:55:14.055Z,98.94
2017-05-07T01:55:54.442Z,98.94
2017-05-07T01:56:34.848Z,98.47
2017-05-07T01:57:15.272Z,98.56
2017-05-07T01:57:55.679Z,98.94
2017-05-07T01:58:36.104Z,98.94
2017-05-07T01:59:16.508Z,98.85
2017-05-07T01:59:56.911Z,98.75
2017-05-07T02:00:37.295Z,98.75
2017-05-07T02:01:17.709Z,98.85
2017-05-07T02:01:58.101Z,98.56
2017-05-07T02:02:38.534Z,98.75
2017-05-07T02:03:18.945Z,99.52
2017-05-07T02:03:59.365Z,99.32
2017-05-07T02:04:39.757Z,98.94
2017-05-07T02:05:20.224Z,99.52
2017-05-07T02:06:00.627Z,99.42
2017-05-07T02:06:41.013Z,99.52
2017-05-07T02:07:21.458Z,99.52
2017-05-07T02:08:01.877Z,99.13
2017-05-07T02:08:42.307Z,99.23
2017-05-07T02:09:22.720Z,99.13
2017-05-07T02:10:03.180Z,99.32
2017-05-07T02:10:43.582Z,99.04
2017-05-07T02:11:23.994Z,99.23
2017-05-07T02:12:04.399Z,99.23
2017-05-07T02:12:44.846Z,99.23
2017-05-07T02:13:25.299Z,99.23
2017-05-07T02:14:05.702Z,99.23
2017-05-07T02:14:46.113Z,99.13
2017-05-07T02:15:26.547Z,99.23
2017-05-07T02:16:07.314Z,98.94
2017-05-07T02:16:47.787Z,99.71
2017-05-07T02:17:28.164Z,99.42
2017-05-07T02:18:08.592Z,99.32
2017-05-07T02:18:49.005Z,99.32
2017-05-07T02:19:30.262Z,99.52
2017-05-07T02:20:10.709Z,99.13
2017-05-07T02:20:51.093Z,99.52
2017-05-07T02:21:31.503Z,99.71
2017-05-07T02:22:11.928Z,99.71
2017-05-07T02:22:52.332Z,99.42
2017-05-07T02:23:33.415Z,99.32
2017-05-07T02:24:14.148Z,99.32
2017-05-07T02:24:54.596Z,99.42
2017-05-07T02:25:35.544Z,99.23
2017-05-07T02:26:15.756Z,99.27
2017-05-07T02:26:56.161Z,99.18
2017-05-07T02:27:36.563Z,99.42
2017-05-07T02:28:20.134Z,99.32
2017-05-07T02:29:00.129Z,99.32
2017-05-07T02:29:41.744Z,99.42
2017-05-07T02:30:22.202Z,99.71
2017-05-07T02:31:02.605Z,99.37
2017-05-07T02:31:43.050Z,99.75
2017-05-07T02:32:23.421Z,99.37
2017-05-07T02:33:03.843Z,99.61
2017-05-07T02:33:44.425Z,99.37
2017-05-07T02:34:24.882Z,99.37
2017-05-07T02:35:05.295Z,99.46
2017-05-07T02:35:45.687Z,99.46
2017-05-07T02:36:26.111Z,99.66
2017-05-07T02:37:06.553Z,99.66
2017-05-07T02:37:46.957Z,99.71
2017-05-07T02:38:27.355Z,99.56
2017-05-07T02:39:07.774Z,99.46
2017-05-07T02:39:48.198Z,99.99
2017-05-07T02:40:28.640Z,99.85
2017-05-07T02:41:09.052Z,99.99
2017-05-07T02:41:49.497Z,99.85
2017-05-07T02:42:29.897Z,99.99
2017-05-07T02:43:10.326Z,99.99
2017-05-07T02:43:50.760Z,99.99
2017-05-07T02:44:31.194Z,99.99
2017-05-07T02:45:11.569Z,99.99
2017-05-07T02:45:52.023Z,99.99
2017-05-07T02:46:32.428Z,99.99
2017-05-07T02:47:12.846Z,99.99
2017-05-07T02:47:53.315Z,99.99
2017-05-07T02:48:34.666Z,99.99
2017-05-07T02:49:15.121Z,99.99
2017-05-07T02:49:55.593Z,99.99
2017-05-07T02:50:36.022Z,99.99
2017-05-07T02:51:16.480Z,99.99
2017-05-07T02:51:56.819Z,99.99
2017-05-07T02:52:37.245Z,99.99
2017-05-07T02:53:17.683Z,99.99
2017-05-07T02:53:58.104Z,99.99
2017-05-07T02:54:38.557Z,99.99
2017-05-07T02:55:18.968Z,99.99
2017-05-07T02:56:00.362Z,99.99
2017-05-07T02:56:41.285Z,99.99
2017-05-07T02:58:28.943Z,99.99
2017-05-07T02:59:09.398Z,99.99
2017-05-07T02:59:49.790Z,99.99
2017-05-07T03:00:30.215Z,99.99
2017-05-07T03:01:10.651Z,99.99
2017-05-07T03:01:51.107Z,99.99
2017-05-07T03:02:31.541Z,99.99
2017-05-07T03:03:11.947Z,99.99
2017-05-07T03:03:52.383Z,99.99
2017-05-07T03:04:32.817Z,99.99
2017-05-07T03:05:13.248Z,99.99
2017-05-07T03:05:53.667Z,99.99
2017-05-07T03:06:34.085Z,99.99
2017-05-07T03:07:14.513Z,99.99
2017-05-07T03:07:54.927Z,99.99
2017-05-07T03:08:35.364Z,99.99
2017-05-07T03:09:15.785Z,99.99
2017-05-07T03:09:56.195Z,99.99
2017-05-07T03:10:36.575Z,99.99
2017-05-07T03:11:16.995Z,99.99
2017-05-07T03:11:57.418Z,99.99
2017-05-07T03:12:37.873Z,99.99
2017-05-07T03:13:18.289Z,99.99
2017-05-07T03:13:58.701Z,99.99
2017-05-07T03:14:39.135Z,99.99
2017-05-07T03:15:19.554Z,99.99
2017-05-07T03:15:59.975Z,99.99
2017-05-07T03:16:40.370Z,99.99
2017-05-07T03:17:20.811Z,99.99
2017-05-07T03:18:01.225Z,99.99
2017-05-07T03:18:41.654Z,99.99
2017-05-07T03:19:22.083Z,99.99
2017-05-07T03:20:02.507Z,99.99
2017-05-07T03:20:42.910Z,99.99
2017-05-07T03:21:23.316Z,99.99
2017-05-07T03:22:04.373Z,99.99
2017-05-07T03:22:44.783Z,99.99
2017-05-07T03:23:25.211Z,99.99
2017-05-07T03:24:05.640Z,99.99
2017-05-07T03:24:46.081Z,99.99
2017-05-07T03:25:26.475Z,99.99
2017-05-07T03:26:06.909Z,99.99
2017-05-07T03:28:24.957Z,99.99
2017-05-07T03:29:05.399Z,99.99
2017-05-07T03:29:45.835Z,99.99
2017-05-07T03:30:26.243Z,99.99
2017-05-07T03:31:06.644Z,99.99
2017-05-07T03:31:47.066Z,99.99
2017-05-07T03:32:27.474Z,99.99
2017-05-07T03:33:07.900Z,99.99
2017-05-07T03:33:48.335Z,99.99
2017-05-07T03:34:28.752Z,99.99
2017-05-07T03:35:09.143Z,99.99
2017-05-07T03:35:49.565Z,99.99
2017-05-07T03:36:30.015Z,99.99
2017-05-07T03:37:10.428Z,99.99
2017-05-07T03:37:50.833Z,99.99
2017-05-07T03:38:31.265Z,99.99
2017-05-07T03:39:11.665Z,99.99
2017-05-07T03:39:52.077Z,99.99
2017-05-07T03:40:32.510Z,99.99
2017-05-07T03:41:12.964Z,99.99
2017-05-07T03:41:53.338Z,99.99
2017-05-07T03:42:33.760Z,99.99
2017-05-07T03:43:14.190Z,99.99
2017-05-07T03:43:54.589Z,99.99
2017-05-07T03:44:35.006Z,99.99
2017-05-07T03:45:15.454Z,99.99
2017-05-07T03:45:55.866Z,99.99
2017-05-07T03:46:36.323Z,99.99
2017-05-07T03:47:16.713Z,99.99
2017-05-07T03:47:57.133Z,99.99
2017-05-07T03:48:37.576Z,99.99
2017-05-07T03:49:17.980Z,99.99
2017-05-07T03:49:58.385Z,99.99
2017-05-07T03:50:38.829Z,99.99
2017-05-07T03:51:19.248Z,99.99
2017-05-07T03:51:59.650Z,99.99
2017-05-07T03:52:40.070Z,99.99
2017-05-07T03:53:20.507Z,99.99
2017-05-07T03:54:00.892Z,99.99
2017-05-07T03:54:41.367Z,99.99
2017-05-07T03:55:21.743Z,99.99
2017-05-07T03:56:02.161Z,99.99
2017-05-07T03:57:54.942Z,99.99
2017-05-07T03:58:35.385Z,99.99
2017-05-07T03:59:15.806Z,99.99
2017-05-07T03:59:56.232Z,99.99
2017-05-07T04:00:36.641Z,99.99
2017-05-07T04:01:17.053Z,99.99
2017-05-07T04:01:57.461Z,99.99
2017-05-07T04:02:37.885Z,99.99
2017-05-07T04:03:18.329Z,99.99
2017-05-07T04:03:58.728Z,99.99
2017-05-07T04:04:39.147Z,99.99
2017-05-07T04:05:19.580Z,99.99
2017-05-07T04:05:59.985Z,99.99
2017-05-07T04:06:40.363Z,99.99
2017-05-07T04:07:20.801Z,99.99
2017-05-07T04:08:01.188Z,99.99
2017-05-07T04:08:41.608Z,99.99
2017-05-07T04:09:22.057Z,99.99
2017-05-07T04:10:02.472Z,99.99
2017-05-07T04:10:42.875Z,99.99
2017-05-07T04:11:23.279Z,99.99
2017-05-07T04:12:03.692Z,99.99
2017-05-07T04:12:44.107Z,99.99
2017-05-07T04:13:24.525Z,99.99
2017-05-07T04:14:05.583Z,99.99
2017-05-07T04:14:46.045Z,99.99
2017-05-07T04:15:27.184Z,99.99
2017-05-07T04:16:07.598Z,99.99
2017-05-07T04:16:48.023Z,99.99
2017-05-07T04:17:28.449Z,99.99
2017-05-07T04:18:08.850Z,99.99
2017-05-07T04:18:49.246Z,99.99
2017-05-07T04:19:29.695Z,99.99
2017-05-07T04:20:10.077Z,99.99
2017-05-07T04:20:50.509Z,99.99
2017-05-07T04:21:30.952Z,99.99
2017-05-07T04:22:11.340Z,99.99
2017-05-07T04:22:51.760Z,99.99
2017-05-07T04:23:32.163Z,99.99
2017-05-07T04:24:12.621Z,99.99
2017-05-07T04:24:53.066Z,99.99
2017-05-07T04:25:33.452Z,99.99
2017-05-07T04:26:13.833Z,99.99
2017-05-07T04:26:54.260Z,99.99
2017-05-07T04:27:34.651Z,99.99
2017-05-07T04:28:15.075Z,99.99
2017-05-07T04:28:55.506Z,99.99
2017-05-07T04:29:35.919Z,99.99
2017-05-07T04:30:16.303Z,99.99
2017-05-07T04:30:56.727Z,99.99
2017-05-07T04:31:37.129Z,99.99
2017-05-07T04:32:17.543Z,99.99
2017-05-07T04:32:57.958Z,99.99
2017-05-07T04:33:38.393Z,99.99
2017-05-07T04:34:18.782Z,99.99
2017-05-07T04:34:59.213Z,99.99
2017-05-07T04:35:39.652Z,99.99
2017-05-07T04:36:20.044Z,99.99
2017-05-07T04:37:00.465Z,99.99
2017-05-07T04:37:40.893Z,99.99
2017-05-07T04:38:21.275Z,99.99
2017-05-07T04:39:01.714Z,99.99
2017-05-07T04:39:42.173Z,99.99
2017-05-07T04:40:22.568Z,99.99
2017-05-07T04:41:02.952Z,99.99
2017-05-07T04:41:43.382Z,99.99
2017-05-07T04:42:23.793Z,99.99
2017-05-07T04:43:04.217Z,99.99
2017-05-07T04:43:44.658Z,99.99
2017-05-07T04:44:25.037Z,99.99
2017-05-07T04:45:05.443Z,99.99
2017-05-07T04:45:45.995Z,99.99
2017-05-07T04:46:26.485Z,99.99
2017-05-07T04:47:06.845Z,99.99
2017-05-07T04:47:47.251Z,99.99
2017-05-07T04:48:27.664Z,99.99
2017-05-07T04:49:08.137Z,99.99
2017-05-07T04:49:48.559Z,99.99
2017-05-07T04:50:28.984Z,99.99
2017-05-07T04:51:09.459Z,99.99
2017-05-07T04:51:49.902Z,99.99
2017-05-07T04:52:30.303Z,99.99
2017-05-07T04:53:10.695Z,99.99
2017-05-07T04:53:51.144Z,99.99
2017-05-07T04:54:31.621Z,99.99
2017-05-07T04:55:12.068Z,99.99
2017-05-07T04:55:52.463Z,99.99
2017-05-07T04:56:32.909Z,99.99
2017-05-07T04:57:13.343Z,99.99
2017-05-07T04:57:53.725Z,99.99
2017-05-07T04:58:34.167Z,99.99
2017-05-07T04:59:14.595Z,99.99
2017-05-07T04:59:55.524Z,99.99
2017-05-07T05:00:35.932Z,99.99
2017-05-07T05:01:16.354Z,99.99
2017-05-07T05:01:56.738Z,99.99
2017-05-07T05:02:37.165Z,99.99
2017-05-07T05:03:17.622Z,99.99
2017-05-07T05:03:58.024Z,99.99
2017-05-07T05:04:38.463Z,99.99
2017-05-07T05:05:18.878Z,99.99
2017-05-07T05:05:59.302Z,99.99
2017-05-07T05:06:39.725Z,99.99
2017-05-07T05:07:20.176Z,99.99
2017-05-07T05:08:00.585Z,99.99
2017-05-07T05:08:41.023Z,99.99
2017-05-07T05:09:21.376Z,99.99
2017-05-07T05:10:01.813Z,99.99
2017-05-07T05:10:42.538Z,99.99
2017-05-07T05:11:23.258Z,99.99
2017-05-07T05:12:03.677Z,99.99
2017-05-07T05:12:44.097Z,99.99
2017-05-07T05:13:24.492Z,99.99
2017-05-07T05:14:04.915Z,99.99
2017-05-07T05:14:48.038Z,99.99
2017-05-07T05:15:30.105Z,99.99
2017-05-07T05:16:11.462Z,99.99
2017-05-07T05:16:51.876Z,99.99
2017-05-07T05:17:32.279Z,99.99
2017-05-07T05:18:12.690Z,99.99
2017-05-07T05:18:53.104Z,99.99
2017-05-07T05:19:33.555Z,99.99
2017-05-07T05:20:13.944Z,99.99
2017-05-07T05:20:54.387Z,99.99
2017-05-07T05:21:34.759Z,99.99
2017-05-07T05:22:15.661Z,99.99
2017-05-07T05:22:56.199Z,99.99
2017-05-07T05:23:36.615Z,99.99
2017-05-07T05:24:17.061Z,99.99
2017-05-07T05:24:57.453Z,99.99
2017-05-07T05:25:37.880Z,99.99
2017-05-07T05:26:18.288Z,99.99
2017-05-07T05:26:58.706Z,99.99
2017-05-07T05:27:39.113Z,99.99
2017-05-07T05:28:19.777Z,99.99
2017-05-07T05:29:00.184Z,99.99
2017-05-07T05:29:40.598Z,99.99
2017-05-07T05:30:21.246Z,99.99
2017-05-07T05:31:01.654Z,99.99
2017-05-07T05:31:42.499Z,99.99
2017-05-07T05:32:22.553Z,99.99
2017-05-07T05:33:02.969Z,99.99
2017-05-07T05:33:43.373Z,99.99
2017-05-07T05:34:23.795Z,99.99
2017-05-07T05:35:04.248Z,99.99
2017-05-07T05:35:44.635Z,99.99
2017-05-07T05:36:25.087Z,99.99
2017-05-07T05:37:05.486Z,99.99
2017-05-07T05:37:45.873Z,99.99
2017-05-07T05:38:26.319Z,99.99
2017-05-07T05:39:06.721Z,99.99
2017-05-07T05:39:47.117Z,99.99
2017-05-07T05:40:27.548Z,99.99
2017-05-07T05:41:07.972Z,99.99
2017-05-07T05:41:48.391Z,99.99
2017-05-07T05:42:28.768Z,99.99
2017-05-07T05:43:09.215Z,99.99
2017-05-07T05:43:49.612Z,99.99
2017-05-07T05:44:30.020Z,99.99
2017-05-07T05:45:10.434Z,99.99
2017-05-07T05:45:50.953Z,99.99
2017-05-07T05:46:31.344Z,99.99
2017-05-07T05:47:11.770Z,99.99
2017-05-07T05:47:52.169Z,99.99
2017-05-07T05:48:32.587Z,99.99
2017-05-07T05:49:13.005Z,99.99
2017-05-07T05:49:53.441Z,99.99
2017-05-07T05:50:33.853Z,99.99
2017-05-07T05:51:14.288Z,99.99
2017-05-07T05:51:54.720Z,99.99
2017-05-07T05:52:35.113Z,99.99
2017-05-07T05:53:15.552Z,99.99
2017-05-07T05:53:55.968Z,99.99
2017-05-07T05:54:36.383Z,99.99
2017-05-07T05:55:16.790Z,99.99
2017-05-07T05:55:57.192Z,99.99
2017-05-07T05:56:37.627Z,99.99
2017-05-07T05:57:18.039Z,99.99
2017-05-07T05:57:58.446Z,99.99
2017-05-07T05:58:38.841Z,99.99
2017-05-07T05:59:19.260Z,99.99
2017-05-07T05:59:59.706Z,99.99
2017-05-07T06:00:40.133Z,99.99
2017-05-07T06:02:32.812Z,99.99
2017-05-07T06:03:13.241Z,99.99
2017-05-07T06:03:53.683Z,99.99
2017-05-07T06:04:34.092Z,99.99
2017-05-07T06:05:14.478Z,99.99
2017-05-07T06:05:54.910Z,99.99
2017-05-07T06:06:35.384Z,99.99
2017-05-07T06:07:15.788Z,99.99
2017-05-07T06:07:56.181Z,99.99
2017-05-07T06:08:36.621Z,99.99
2017-05-07T06:09:17.050Z,99.99
2017-05-07T06:09:57.445Z,99.99
2017-05-07T06:10:37.867Z,99.99
2017-05-07T06:11:18.279Z,99.99
2017-05-07T06:11:58.659Z,99.99
2017-05-07T06:12:43.799Z,99.99
2017-05-07T06:13:24.265Z,99.99
2017-05-07T06:14:05.441Z,99.99
2017-05-07T06:14:51.553Z,99.99
2017-05-07T06:15:31.971Z,99.99
2017-05-07T06:16:24.829Z,99.99
2017-05-07T06:17:08.909Z,99.99
2017-05-07T06:17:51.977Z,99.99
2017-05-07T06:18:33.294Z,99.99
2017-05-07T06:19:13.732Z,99.99
2017-05-07T06:19:54.981Z,99.99
2017-05-07T06:20:35.342Z,99.99
2017-05-07T06:21:15.810Z,99.99
2017-05-07T06:21:56.189Z,99.99
2017-05-07T06:22:36.614Z,99.99
2017-05-07T06:23:17.049Z,99.99
2017-05-07T06:23:57.494Z,99.99
2017-05-07T06:24:37.901Z,99.99
2017-05-07T06:25:18.294Z,99.99
2017-05-07T06:25:58.747Z,99.99
2017-05-07T06:26:39.143Z,99.99
2017-05-07T06:27:19.623Z,99.99
2017-05-07T06:28:00.002Z,99.99
2017-05-07T06:28:40.421Z,99.99
2017-05-07T06:29:20.826Z,99.99
2017-05-07T06:30:01.258Z,99.99
2017-05-07T06:30:41.673Z,99.99
2017-05-07T06:31:22.088Z,99.99
2017-05-07T06:32:02.515Z,99.99
2017-05-07T06:32:42.929Z,99.99
2017-05-07T06:33:23.329Z,99.99
2017-05-07T06:34:03.752Z,99.99
2017-05-07T06:34:44.168Z,99.99
2017-05-07T06:35:24.605Z,99.99
2017-05-07T06:36:05.012Z,99.99
2017-05-07T06:36:45.472Z,99.99
2017-05-07T06:37:25.886Z,99.99
2017-05-07T06:38:06.314Z,99.99
2017-05-07T06:38:46.694Z,99.99
2017-05-07T06:39:27.125Z,99.99
2017-05-07T06:40:07.550Z,99.99
2017-05-07T06:40:47.982Z,99.99
2017-05-07T06:41:28.389Z,99.99
2017-05-07T06:42:08.812Z,99.99
2017-05-07T06:42:49.215Z,99.99
2017-05-07T06:43:29.604Z,99.99
2017-05-07T06:44:10.032Z,99.99
2017-05-07T06:44:50.461Z,99.99
2017-05-07T06:45:30.868Z,99.99
2017-05-07T06:46:11.297Z,99.99
2017-05-07T06:46:51.704Z,99.99
2017-05-07T06:47:32.110Z,99.99
2017-05-07T06:48:12.530Z,99.99
2017-05-07T06:48:52.952Z,99.99
2017-05-07T06:49:33.352Z,99.99
2017-05-07T06:50:13.993Z,99.99
2017-05-07T06:50:54.398Z,99.99
2017-05-07T06:51:34.816Z,99.99
2017-05-07T06:52:15.588Z,99.99
2017-05-07T06:52:55.915Z,99.99
2017-05-07T06:53:36.320Z,99.99
2017-05-07T06:54:16.748Z,99.99
2017-05-07T06:54:57.157Z,99.99
2017-05-07T06:55:37.568Z,99.99
2017-05-07T06:56:17.981Z,99.99
2017-05-07T06:56:58.395Z,99.99
2017-05-07T06:57:38.824Z,99.99
2017-05-07T06:58:19.215Z,99.99
2017-05-07T06:58:59.639Z,99.99
2017-05-07T06:59:40.051Z,99.99
2017-05-07T07:00:20.455Z,99.99
2017-05-07T07:01:00.882Z,99.99
2017-05-07T07:01:41.281Z,99.99
2017-05-07T07:02:21.724Z,99.99
2017-05-07T07:03:02.193Z,99.99
2017-05-07T07:03:42.609Z,99.99
2017-05-07T07:04:22.997Z,99.99
2017-05-07T07:05:03.428Z,99.99
2017-05-07T07:05:43.815Z,99.99
2017-05-07T07:06:24.239Z,99.99
2017-05-07T07:07:04.667Z,99.99
2017-05-07T07:07:45.141Z,99.99
2017-05-07T07:08:25.556Z,99.99
2017-05-07T07:09:06.029Z,99.99
2017-05-07T07:09:47.413Z,99.99
2017-05-07T07:12:05.498Z,99.99
2017-05-07T07:12:46.066Z,99.99
2017-05-07T07:13:26.491Z,99.99
2017-05-07T07:14:06.876Z,99.99
2017-05-07T07:14:47.350Z,99.99
2017-05-07T07:15:27.742Z,99.99
2017-05-07T07:16:08.144Z,99.99
2017-05-07T07:16:48.582Z,99.99
2017-05-07T07:17:29.017Z,99.99
2017-05-07T07:18:09.397Z,99.99
2017-05-07T07:18:49.826Z,99.99
2017-05-07T07:19:30.221Z,99.99
2017-05-07T07:20:10.646Z,99.99
2017-05-07T07:20:51.058Z,99.99
2017-05-07T07:21:31.450Z,99.99
2017-05-07T07:22:11.866Z,99.99
2017-05-07T07:22:52.355Z,99.99
2017-05-07T07:23:32.694Z,99.99
2017-05-07T07:24:13.108Z,99.99
2017-05-07T07:24:53.568Z,99.99
2017-05-07T07:25:34.016Z,99.99
2017-05-07T07:26:14.660Z,99.99
2017-05-07T07:26:54.908Z,99.99
2017-05-07T07:27:35.915Z,99.99
2017-05-07T07:28:16.335Z,99.99
2017-05-07T07:28:56.791Z,99.99
2017-05-07T07:29:37.208Z,99.99
2017-05-07T07:30:17.653Z,99.99
2017-05-07T07:30:58.096Z,99.99
2017-05-07T07:31:38.514Z,99.99
2017-05-07T07:32:18.940Z,99.99
2017-05-07T07:32:59.488Z,99.99
2017-05-07T07:33:39.886Z,99.99
2017-05-07T07:34:20.329Z,99.99
2017-05-07T07:35:00.737Z,99.99
2017-05-07T07:35:41.125Z,99.99
2017-05-07T07:36:21.540Z,99.99
2017-05-07T07:37:01.928Z,99.99
2017-05-07T07:37:42.364Z,99.99
2017-05-07T07:38:22.784Z,99.99
2017-05-07T07:39:03.191Z,99.99
2017-05-07T07:39:43.591Z,99.99
2017-05-07T07:40:24.049Z,99.99
2017-05-07T07:41:04.455Z,99.99
2017-05-07T07:41:44.881Z,99.99
2017-05-07T07:42:25.426Z,99.99
2017-05-07T07:43:07.643Z,99.99
2017-05-07T07:43:50.132Z,99.99
2017-05-07T07:44:38.595Z,99.99
2017-05-07T07:46:41.194Z,99.99
2017-05-07T07:47:26.844Z,99.99
2017-05-07T07:49:34.563Z,99.99
2017-05-07T07:50:21.843Z,99.99
2017-05-07T07:51:05.794Z,99.99
2017-05-07T07:52:01.001Z,99.99
2017-05-07T07:52:42.221Z,99.99
2017-05-07T07:53:31.070Z,99.99
2017-05-07T07:54:16.594Z,99.99
2017-05-07T07:54:59.948Z,99.99
2017-05-07T07:55:41.489Z,99.99
2017-05-07T07:56:21.928Z,99.99
2017-05-07T07:57:02.848Z,99.99
2017-05-07T07:58:50.559Z,99.99
2017-05-07T07:59:30.982Z,99.99
2017-05-07T08:00:11.460Z,99.99
2017-05-07T08:00:51.872Z,99.99
2017-05-07T08:01:32.254Z,99.99
2017-05-07T08:02:12.675Z,99.99
2017-05-07T08:02:53.102Z,99.99
2017-05-07T08:03:33.502Z,99.99
2017-05-07T08:04:13.908Z,99.99
2017-05-07T08:06:26.733Z,99.99
2017-05-07T08:07:07.171Z,99.99
2017-05-07T08:07:47.630Z,99.99
2017-05-07T08:08:28.038Z,99.99
2017-05-07T08:09:08.464Z,99.99
2017-05-07T08:09:48.838Z,99.99
2017-05-07T08:10:29.284Z,99.99
2017-05-07T08:11:09.792Z,99.99
2017-05-07T08:11:50.199Z,99.99
2017-05-07T08:12:30.620Z,99.99
2017-05-07T08:13:11.038Z,99.99
2017-05-07T08:13:51.457Z,99.99
2017-05-07T08:14:31.893Z,99.99
2017-05-07T08:16:44.922Z,99.99
2017-05-07T08:17:25.228Z,99.99
2017-05-07T08:18:05.642Z,99.99
2017-05-07T08:18:46.047Z,99.99
2017-05-07T08:19:26.457Z,99.99
2017-05-07T08:20:06.818Z,99.99
2017-05-07T08:20:47.266Z,99.99
2017-05-07T08:21:27.748Z,99.99
2017-05-07T08:22:08.167Z,99.99
2017-05-07T08:22:48.596Z,99.99
2017-05-07T08:23:28.966Z,99.99
2017-05-07T08:24:13.828Z,99.99
2017-05-07T08:24:56.284Z,99.99
2017-05-07T08:25:36.801Z,99.99
2017-05-07T08:26:17.127Z,99.99
2017-05-07T08:26:57.487Z,99.99
2017-05-07T08:27:37.891Z,99.99
2017-05-07T08:28:18.360Z,99.99
2017-05-07T08:28:58.745Z,99.99
2017-05-07T08:29:39.184Z,99.99
2017-05-07T08:30:19.540Z,99.99
2017-05-07T08:30:59.940Z,99.99
2017-05-07T08:31:40.360Z,99.99
2017-05-07T08:32:20.783Z,99.99
2017-05-07T08:33:01.210Z,99.99
2017-05-07T08:33:43.412Z,99.99
2017-05-07T08:34:23.833Z,99.99
2017-05-07T08:35:04.206Z,99.99
2017-05-07T08:35:44.602Z,99.99
2017-05-07T08:36:25.086Z,99.99
2017-05-07T08:37:05.447Z,99.99
2017-05-07T08:37:45.880Z,99.99
2017-05-07T08:38:26.285Z,99.99
2017-05-07T08:39:06.683Z,99.99
2017-05-07T08:39:47.086Z,99.99
2017-05-07T08:40:27.534Z,99.99
2017-05-07T08:41:07.950Z,99.99
2017-05-07T08:41:48.363Z,99.99
2017-05-07T08:42:28.769Z,99.99
2017-05-07T08:43:09.154Z,99.99
2017-05-07T08:43:49.599Z,99.99
2017-05-07T08:44:30.030Z,99.99
2017-05-07T08:45:10.562Z,99.99
2017-05-07T08:45:50.962Z,99.99
2017-05-07T08:46:31.348Z,99.99
2017-05-07T08:47:11.742Z,99.99
2017-05-07T08:47:53.735Z,99.99
2017-05-07T08:48:34.202Z,99.99
2017-05-07T08:49:14.577Z,99.99
2017-05-07T08:49:55.009Z,99.99
2017-05-07T08:50:35.470Z,99.99
2017-05-07T08:51:15.876Z,99.99
2017-05-07T08:51:56.290Z,99.99
2017-05-07T08:52:36.712Z,99.99
2017-05-07T08:53:17.121Z,99.99
2017-05-07T08:53:57.547Z,99.99
2017-05-07T08:54:37.978Z,99.99
2017-05-07T08:55:18.368Z,99.99
2017-05-07T08:55:58.777Z,99.99
2017-05-07T08:56:39.207Z,99.99
2017-05-07T08:57:19.691Z,99.99
2017-05-07T08:58:00.102Z,99.99
2017-05-07T08:58:40.604Z,99.99
2017-05-07T08:59:20.939Z,99.99
2017-05-07T09:00:01.371Z,99.99
2017-05-07T09:00:41.789Z,99.99
2017-05-07T09:01:22.186Z,99.99